Time;durP1;ratioP1;P1;durP2;ratioP2;P2;SDS_P1;SDS_P2;PMS_P1;PMS_P2;Temp;Humidity;BMP_temperature;BMP_pressure;BME280_temperature;BME280_humidity;BME280_pressure;Samples;Min_cycle;Max_cycle;Signal;HPM_P1;HPM_P2
2021/03/02 00:02:21;;;;;;;76.40;33.88;;;;;;;2.22;100.00;96241.13;10322445;28;20026;-73
2021/03/02 00:07:22;;;;;;;71.50;35.03;;;;;;;2.05;100.00;96247.59;10322184;28;20030;-73
2021/03/02 00:12:22;;;;;;;69.40;34.25;;;;;;;2.10;100.00;96242.59;10322523;28;20113;-73
2021/03/02 00:17:32;;;;;;;67.82;33.67;;;;;;;2.18;100.00;96249.66;10322595;28;20803;-73
2021/03/02 00:22:44;;;;;;;66.60;33.28;;;;;;;2.22;100.00;96241.13;10330401;28;20030;-73
2021/03/02 00:27:45;;;;;;;69.15;34.35;;;;;;;2.21;100.00;96233.34;10330426;28;20022;-73
2021/03/02 00:32:47;;;;;;;63.75;31.17;;;;;;;2.27;100.00;96239.75;10330423;28;20042;-73
2021/03/02 00:37:48;;;;;;;67.47;32.38;;;;;;;2.22;100.00;96229.69;10328810;28;20133;-73
2021/03/02 00:42:50;;;;;;;48.20;25.92;;;;;;;2.18;100.00;96226.59;10329610;28;20023;-73
2021/03/02 00:47:53;;;;;;;63.20;30.77;;;;;;;2.14;100.00;96222.66;10330166;28;20042;-73
2021/03/02 00:52:54;;;;;;;59.42;28.27;;;;;;;2.07;100.00;96221.75;10329404;28;20036;-73
2021/03/02 00:57:55;;;;;;;63.67;29.25;;;;;;;2.00;100.00;96234.09;10329348;28;20189;-73
2021/03/02 01:02:56;;;;;;;60.37;31.00;;;;;;;1.88;100.00;96213.34;10328870;28;20100;-73
2021/03/02 01:07:56;;;;;;;75.22;32.10;;;;;;;1.67;100.00;96221.97;10328792;28;20273;-73
2021/03/02 01:12:56;;;;;;;82.10;38.33;;;;;;;1.52;100.00;96224.59;10327791;28;20197;-73
2021/03/02 01:17:57;;;;;;;62.17;32.60;;;;;;;1.49;100.00;96229.41;10328528;28;20277;-73
2021/03/02 01:22:57;;;;;;;73.25;34.17;;;;;;;1.38;100.00;96220.06;10328161;28;20035;-73
2021/03/02 01:27:57;;;;;;;61.63;28.17;;;;;;;1.43;100.00;96215.06;10328052;28;20030;-73
2021/03/02 01:32:58;;;;;;;67.88;32.38;;;;;;;1.19;100.00;96214.25;10326937;28;20030;-73
2021/03/02 01:37:59;;;;;;;71.57;32.37;;;;;;;1.05;100.00;96212.41;10327771;28;20057;-73
2021/03/02 01:42:59;;;;;;;62.65;28.45;;;;;;;1.05;100.00;96207.09;10327446;28;21223;-73
2021/03/02 01:47:59;;;;;;;65.10;27.65;;;;;;;1.04;100.00;96215.22;10326212;28;20072;-73
2021/03/02 01:53:00;;;;;;;51.37;24.20;;;;;;;0.98;100.00;96208.81;10325896;28;20038;-73
2021/03/02 01:58:00;;;;;;;84.32;33.40;;;;;;;0.92;100.00;96201.56;10327134;28;20072;-73
2021/03/02 02:03:21;;;;;;;86.03;35.17;;;;;;;0.79;100.00;96197.66;10326899;28;20022;-73
2021/03/02 02:08:32;;;;;;;67.55;34.10;;;;;;;0.68;100.00;96196.28;10326274;28;20285;-73
2021/03/02 02:13:47;;;;;;;72.78;35.08;;;;;;;0.63;100.00;96192.50;10325438;28;20414;-73
2021/03/02 02:18:48;;;;;;;71.35;34.72;;;;;;;0.65;100.00;96183.38;10325614;28;20113;-73
2021/03/02 02:24:34;;;;;;;71.10;33.08;;;;;;;0.76;100.00;96186.63;10325915;28;20030;-73
2021/03/02 02:29:36;;;;;;;72.03;32.95;;;;;;;0.62;100.00;96196.13;10325303;28;20125;-73
2021/03/02 02:34:40;;;;;;;89.45;37.42;;;;;;;0.72;100.00;96206.50;10340270;28;20030;-73
2021/03/02 02:39:41;;;;;;;76.30;34.97;;;;;;;0.85;100.00;96212.88;10325919;28;20053;-73
2021/03/02 02:44:42;;;;;;;65.50;31.15;;;;;;;0.93;100.00;96205.88;10322900;28;20512;-73
2021/03/02 02:49:47;;;;;;;78.05;38.20;;;;;;;0.88;100.00;96211.69;10323359;28;20037;-73
2021/03/02 02:54:51;;;;;;;89.97;40.88;;;;;;;0.95;100.00;96212.63;10324505;28;20034;-73
2021/03/02 02:59:53;;;;;;;90.88;40.95;;;;;;;0.82;100.00;96207.94;10324418;28;20037;-73
2021/03/02 03:05:08;;;;;;;91.13;43.00;;;;;;;0.79;100.00;96223.31;10324282;28;20030;-73
2021/03/02 03:10:11;;;;;;;89.55;40.28;;;;;;;0.75;100.00;96229.97;10324477;28;20141;-73
2021/03/02 03:15:15;;;;;;;89.05;38.75;;;;;;;0.63;100.00;96229.53;10323836;28;20816;-73
2021/03/02 03:20:16;;;;;;;95.45;41.50;;;;;;;0.46;100.00;96239.34;10323852;28;20037;-73
2021/03/02 03:25:17;;;;;;;96.05;43.97;;;;;;;0.32;100.00;96239.09;10323452;28;20034;-73
2021/03/02 03:30:20;;;;;;;86.55;42.15;;;;;;;0.44;100.00;96236.88;10323469;28;20034;-73
2021/03/02 03:35:22;;;;;;;78.57;39.40;;;;;;;0.38;100.00;96240.22;10323187;28;20149;-73
2021/03/02 03:40:23;;;;;;;90.75;44.92;;;;;;;0.36;100.00;96238.75;10322929;28;20117;-73
2021/03/02 03:45:23;;;;;;;86.88;40.85;;;;;;;0.08;100.00;96228.59;10323319;28;20121;-73
2021/03/02 03:50:24;;;;;;;86.07;40.53;;;;;;;-0.07;100.00;96242.53;10322818;28;20034;-73
2021/03/02 03:55:30;;;;;;;83.82;37.05;;;;;;;-0.14;100.00;96244.19;10322131;28;20400;-73
2021/03/02 04:00:31;;;;;;;94.45;40.15;;;;;;;-0.12;100.00;96236.09;10322916;28;20441;-73
2021/03/02 04:05:32;;;;;;;86.57;41.05;;;;;;;0.00;100.00;96247.97;10322473;28;20393;-73
2021/03/02 04:10:32;;;;;;;82.78;39.17;;;;;;;0.02;100.00;96247.78;10321798;28;20035;-73
2021/03/02 04:15:33;;;;;;;80.90;38.05;;;;;;;-0.05;100.00;96247.66;10282351;28;20046;-73
2021/03/02 04:20:33;;;;;;;70.72;35.67;;;;;;;-0.15;100.00;96247.00;10281569;28;20113;-73
2021/03/02 04:25:34;;;;;;;70.18;37.08;;;;;;;-0.11;100.00;96241.22;10282125;28;20033;-72
2021/03/02 04:30:35;;;;;;;77.63;35.60;;;;;;;-0.24;100.00;96248.81;10282647;28;20038;-72
2021/03/02 04:35:36;;;;;;;70.95;36.63;;;;;;;-0.29;100.00;96256.41;10281638;28;20046;-72
2021/03/02 04:40:37;;;;;;;76.85;36.30;;;;;;;-0.30;100.00;96245.03;10281673;28;20059;-72
2021/03/02 04:45:37;;;;;;;87.47;35.88;;;;;;;-0.27;100.00;96243.88;10282275;28;20182;-72
2021/03/02 04:50:37;;;;;;;81.05;36.63;;;;;;;-0.25;100.00;96244.53;10281251;28;20116;-72
2021/03/02 04:55:38;;;;;;;67.83;34.13;;;;;;;-0.33;100.00;96255.94;10281410;28;20046;-72
2021/03/02 05:00:38;;;;;;;85.03;38.33;;;;;;;-0.32;100.00;96257.59;10281689;28;20820;-74
2021/03/02 05:05:39;;;;;;;83.65;38.83;;;;;;;-0.42;100.00;96263.06;10283433;28;20026;-72
2021/03/02 05:10:39;;;;;;;78.53;37.87;;;;;;;-0.35;100.00;96264.03;10296704;28;20027;-72
2021/03/02 05:15:39;;;;;;;88.05;40.40;;;;;;;-0.28;100.00;96271.28;10288394;28;20665;-74
2021/03/02 05:20:40;;;;;;;89.00;39.92;;;;;;;-0.10;100.00;96265.81;10295378;28;20803;-72
2021/03/02 05:25:40;;;;;;;71.73;29.00;;;;;;;0.22;100.00;96266.72;10322243;28;20504;-73
2021/03/02 05:30:41;;;;;;;70.37;31.63;;;;;;;0.64;100.00;96277.00;10288057;28;20045;-72
2021/03/02 05:35:41;;;;;;;74.57;34.33;;;;;;;0.89;100.00;96276.84;10322293;28;20796;-72
2021/03/02 05:40:42;;;;;;;71.80;31.40;;;;;;;1.29;100.00;96274.13;10326611;28;20309;-73
2021/03/02 05:45:45;;;;;;;72.95;32.42;;;;;;;1.67;100.00;96271.50;10326545;28;20113;-72
2021/03/02 05:50:46;;;;;;;82.93;32.17;;;;;;;2.01;100.00;96275.47;10325615;28;20029;-73
2021/03/02 05:55:47;;;;;;;75.28;32.63;;;;;;;2.66;100.00;96278.44;10316038;28;20041;-73
2021/03/02 06:00:47;;;;;;;79.38;34.15;;;;;;;3.19;100.00;96278.22;10284284;28;20478;-73
2021/03/02 06:05:47;;;;;;;72.75;34.17;;;;;;;2.91;100.00;96270.97;10284572;28;20030;-73
2021/03/02 06:10:48;;;;;;;63.30;33.63;;;;;;;3.55;100.00;96277.34;10299917;28;20044;-73
2021/03/02 06:15:56;;;;;;;80.07;35.65;;;;;;;3.99;100.00;96283.44;10326608;28;20298;-73
2021/03/02 06:21:12;;;;;;;70.95;31.65;;;;;;;4.70;100.00;96271.78;10285330;28;20070;-73
2021/03/02 06:26:13;;;;;;;63.17;29.23;;;;;;;5.27;100.00;96273.25;10284339;28;20037;-73
2021/03/02 06:31:34;;;;;;;51.83;26.75;;;;;;;6.15;97.97;96279.47;10284317;28;20498;-74
2021/03/02 06:36:35;;;;;;;59.58;26.33;;;;;;;6.78;88.30;96284.28;10299417;28;20031;-74
2021/03/02 06:41:36;;;;;;;56.92;26.02;;;;;;;7.90;76.84;96282.22;10284156;28;20510;-73
2021/03/02 06:46:40;;;;;;;55.90;26.77;;;;;;;8.79;67.75;96279.38;10284323;28;20035;-73
2021/03/02 06:51:40;;;;;;;53.30;25.80;;;;;;;9.96;61.16;96288.16;10284420;28;21214;-73
2021/03/02 06:56:42;;;;;;;56.60;26.13;;;;;;;10.73;54.48;96276.53;10283485;28;20045;-73
2021/03/02 07:01:44;;;;;;;52.75;25.25;;;;;;;11.78;51.41;96271.03;10283747;28;20109;-73
2021/03/02 07:06:54;;;;;;;49.78;22.77;;;;;;;12.71;47.44;96272.50;10284093;28;20061;-73
2021/03/02 07:11:57;;;;;;;52.15;23.30;;;;;;;12.54;47.13;96259.88;10318216;28;20347;-73
2021/03/02 07:16:57;;;;;;;46.30;22.50;;;;;;;12.89;46.77;96257.91;10323056;28;20046;-73
2021/03/02 07:21:58;;;;;;;60.42;23.85;;;;;;;12.16;47.23;96256.06;10323741;28;20030;-73
2021/03/02 07:27:02;;;;;;;41.17;22.17;;;;;;;11.66;48.46;96260.31;10322845;28;20033;-73
2021/03/02 07:32:03;;;;;;;51.83;22.80;;;;;;;11.85;47.63;96257.44;10322547;28;20113;-73
2021/03/02 07:37:04;;;;;;;41.03;21.83;;;;;;;12.00;48.36;96259.56;10322557;28;20056;-74
2021/03/02 07:42:21;;;;;;;53.53;22.52;;;;;;;12.65;47.10;96244.66;10323423;28;20058;-74
2021/03/02 07:47:45;;;;;;;49.08;23.25;;;;;;;13.02;45.63;96246.75;10321203;28;20092;-72
2021/03/02 07:52:46;;;;;;;45.78;21.15;;;;;;;12.84;46.12;96237.09;10321275;28;20065;-72
2021/03/02 07:57:48;;;;;;;76.00;28.20;;;;;;;12.46;46.93;96244.94;10322787;28;20129;-72
2021/03/02 08:03:16;;;;;;;57.35;29.50;;;;;;;13.40;44.75;96239.66;10320566;28;20114;-73
2021/03/02 08:08:23;;;;;;;61.93;31.97;;;;;;;13.70;43.64;96232.13;10320777;28;20030;-73
2021/03/02 08:13:39;;;;;;;84.47;34.42;;;;;;;13.43;45.67;96233.75;10322618;28;20027;-75
2021/03/02 08:18:41;;;;;;;69.57;31.60;;;;;;;13.61;44.13;96242.56;10321760;28;20039;-73
2021/03/02 08:23:59;;;;;;;64.57;31.60;;;;;;;12.31;46.94;96239.31;10281970;28;20093;-73
2021/03/02 08:29:03;;;;;;;50.58;25.83;;;;;;;11.03;50.01;96244.06;10281729;28;20121;-73
2021/03/02 08:34:05;;;;;;;54.53;24.75;;;;;;;11.72;46.58;96231.59;10295342;28;20023;-73
2021/03/02 08:39:14;;;;;;;45.97;22.02;;;;;;;13.52;43.56;96231.41;10322023;28;20058;-73
2021/03/02 08:44:19;;;;;;;48.97;25.77;;;;;;;14.29;40.03;96220.41;10316228;28;20042;-72
2021/03/02 08:49:20;;;;;;;44.88;22.90;;;;;;;15.48;39.48;96209.09;10289373;28;20031;-72
2021/03/02 08:54:20;;;;;;;38.90;20.90;;;;;;;17.10;35.32;96203.28;10315489;28;20827;-73
2021/03/02 08:59:29;;;;;;;34.10;17.40;;;;;;;17.56;34.09;96194.88;10328345;28;20026;-73
2021/03/02 09:04:33;;;;;;;40.92;18.40;;;;;;;18.97;32.11;96193.38;10295889;28;20031;-72
2021/03/02 09:09:33;;;;;;;23.48;12.57;;;;;;;16.74;32.29;96199.56;10293358;28;20023;-73
2021/03/02 09:14:34;;;;;;;24.92;13.95;;;;;;;14.30;36.08;96212.06;10322528;28;20525;-73
2021/03/02 09:19:40;;;;;;;27.08;11.27;;;;;;;13.63;37.06;96208.00;10288532;28;20790;-73
2021/03/02 09:24:56;;;;;;;18.17;8.77;;;;;;;12.98;37.93;96208.66;10286435;28;20062;-72
2021/03/02 09:29:57;;;;;;;13.32;7.35;;;;;;;12.08;37.56;96211.50;10287418;28;20027;-72
2021/03/02 09:35:04;;;;;;;16.90;8.77;;;;;;;11.08;40.67;96208.41;10287954;28;20034;-73
2021/03/02 09:40:15;;;;;;;18.17;7.28;;;;;;;11.12;40.00;96198.75;10286737;28;20054;-74
2021/03/02 09:45:17;;;;;;;15.52;8.18;;;;;;;13.15;38.86;96188.88;10287223;28;20454;-72
2021/03/02 09:50:21;;;;;;;13.02;6.00;;;;;;;14.97;34.69;96182.69;10297112;28;20525;-73
2021/03/02 09:55:27;;;;;;;18.55;6.75;;;;;;;14.85;34.59;96182.88;10286698;28;20031;-73
2021/03/02 10:00:36;;;;;;;12.35;5.40;;;;;;;14.86;33.68;96176.41;10286333;28;20495;-75
2021/03/02 10:05:53;;;;;;;12.30;6.57;;;;;;;17.03;32.53;96162.81;10286345;28;20033;-74
2021/03/02 10:11:12;;;;;;;17.65;6.68;;;;;;;19.37;28.62;96166.66;10301694;28;20109;-73
2021/03/02 10:16:24;;;;;;;19.17;6.05;;;;;;;22.70;24.40;96146.53;10290664;28;20042;-74
2021/03/02 10:21:28;;;;;;;7.38;4.78;;;;;;;24.68;22.78;96138.19;10285685;28;20406;-74
2021/03/02 10:26:31;;;;;;;6.65;4.45;;;;;;;19.74;27.39;96148.69;10285648;28;20050;-74
2021/03/02 10:31:33;;;;;;;10.90;5.07;;;;;;;21.41;25.87;96132.47;10284943;28;20081;-73
2021/03/02 10:36:36;;;;;;;7.00;4.63;;;;;;;23.09;24.09;96128.41;10284895;28;20034;-73
2021/03/02 10:41:37;;;;;;;5.25;3.97;;;;;;;23.95;22.94;96117.84;10285223;28;20571;-73
2021/03/02 10:46:38;;;;;;;7.32;3.80;;;;;;;25.56;21.56;96102.75;10284262;28;20062;-73
2021/03/02 10:51:39;;;;;;;5.43;3.47;;;;;;;25.27;22.68;96103.56;10284248;28;20461;-74
2021/03/02 10:56:40;;;;;;;7.93;4.10;;;;;;;24.27;22.19;96107.44;10284652;28;20084;-73
2021/03/02 11:01:40;;;;;;;6.57;3.78;;;;;;;24.94;22.18;96085.03;10283739;28;20479;-74
2021/03/02 11:06:40;;;;;;;10.50;4.27;;;;;;;20.83;26.30;96078.22;10282511;28;20047;-73
2021/03/02 11:11:41;;;;;;;7.03;4.80;;;;;;;18.11;28.55;96080.47;10305116;28;20376;-72
2021/03/02 11:16:41;;;;;;;8.60;4.93;;;;;;;22.26;24.52;96063.34;10323685;28;20034;-73
2021/03/02 11:21:41;;;;;;;9.37;4.23;;;;;;;23.46;23.91;96046.66;10294037;28;20030;-73
2021/03/02 11:26:42;;;;;;;11.40;4.60;;;;;;;23.72;22.39;96041.16;10282904;28;20041;-73
2021/03/02 11:31:42;;;;;;;9.13;4.27;;;;;;;24.62;22.53;96027.63;10317809;28;20149;-73
2021/03/02 11:36:43;;;;;;;6.10;3.80;;;;;;;22.00;23.42;96025.69;10292478;28;20054;-74
2021/03/02 11:41:43;;;;;;;8.50;4.28;;;;;;;20.83;25.25;96020.00;10281226;28;20076;-73
2021/03/02 11:46:43;;;;;;;8.97;4.80;;;;;;;21.16;24.22;96014.34;10283116;28;20089;-72
2021/03/02 11:51:44;;;;;;;6.20;4.50;;;;;;;16.64;29.21;96020.44;10282400;28;20037;-73
2021/03/02 11:56:44;;;;;;;15.37;5.47;;;;;;;14.37;32.40;96011.69;10281743;28;20286;-72
2021/03/02 12:01:44;;;;;;;15.97;6.33;;;;;;;13.54;35.54;96010.47;10281753;28;20030;-72
2021/03/02 12:06:45;;;;;;;7.73;5.40;;;;;;;12.94;34.75;95999.75;10280475;28;20019;-72
2021/03/02 12:11:46;;;;;;;12.00;5.83;;;;;;;11.32;38.95;95993.78;10295178;28;20126;-72
2021/03/02 12:16:46;;;;;;;7.95;5.15;;;;;;;11.25;40.21;95985.06;10288026;28;20027;-73
2021/03/02 12:21:47;;;;;;;13.35;6.25;;;;;;;11.57;39.23;95989.84;10289705;28;20027;-72
2021/03/02 12:26:48;;;;;;;10.20;5.65;;;;;;;11.86;39.80;95977.03;10289138;28;20139;-73
2021/03/02 12:31:48;;;;;;;16.80;5.20;;;;;;;12.00;39.62;95957.81;10289888;28;20038;-73
2021/03/02 12:36:49;;;;;;;12.93;6.20;;;;;;;11.80;39.23;95959.16;10289196;28;20476;-73
2021/03/02 12:41:49;;;;;;;11.15;6.05;;;;;;;11.74;38.88;95963.66;10288440;28;20306;-73
2021/03/02 12:46:50;;;;;;;11.20;5.83;;;;;;;11.17;40.32;95964.75;10288802;28;20035;-74
2021/03/02 12:51:50;;;;;;;14.35;7.05;;;;;;;11.26;42.45;95963.28;10288283;28;20142;-73
2021/03/02 12:56:51;;;;;;;12.70;6.40;;;;;;;11.33;40.63;95952.38;10288253;28;20050;-73
2021/03/02 13:01:51;;;;;;;13.73;7.20;;;;;;;11.34;41.18;95945.09;10288150;28;20034;-73
2021/03/02 13:06:54;;;;;;;12.18;6.22;;;;;;;11.58;42.88;95938.44;10288246;28;20030;-73
2021/03/02 13:11:55;;;;;;;15.23;6.90;;;;;;;11.62;41.22;95936.03;10311662;28;20409;-74
2021/03/02 13:16:55;;;;;;;16.92;6.53;;;;;;;11.69;41.05;95933.97;10328339;28;20113;-74
2021/03/02 13:21:56;;;;;;;11.35;6.97;;;;;;;11.46;41.84;95935.84;10316110;28;20786;-74
2021/03/02 13:26:56;;;;;;;16.20;7.00;;;;;;;11.06;41.95;95944.16;10286544;28;20106;-74
2021/03/02 13:31:59;;;;;;;12.35;6.53;;;;;;;11.30;42.05;95934.00;10286974;28;20089;-74
2021/03/02 13:37:00;;;;;;;17.20;6.93;;;;;;;11.14;42.71;95926.78;10287595;28;20039;-74
2021/03/02 13:42:01;;;;;;;11.35;7.72;;;;;;;11.25;42.91;95923.97;10286755;28;20534;-74
2021/03/02 13:47:02;;;;;;;13.13;7.18;;;;;;;11.18;42.29;95922.56;10286638;28;20110;-73
2021/03/02 13:52:03;;;;;;;14.60;7.65;;;;;;;11.27;43.17;95924.56;10287080;28;20912;-73
2021/03/02 13:57:04;;;;;;;17.55;7.50;;;;;;;11.04;44.11;95922.88;10286955;28;20046;-73
2021/03/02 14:02:05;;;;;;;17.80;8.43;;;;;;;11.00;43.70;95927.13;10286469;28;20038;-73
2021/03/02 14:07:05;;;;;;;18.10;8.65;;;;;;;11.20;43.31;95917.72;10299048;28;20695;-73
2021/03/02 14:12:06;;;;;;;17.02;7.30;;;;;;;11.29;43.01;95917.03;10325374;28;20030;-72
2021/03/02 14:17:09;;;;;;;12.50;8.80;;;;;;;10.99;42.61;95905.84;10325281;28;20109;-72
2021/03/02 14:22:11;;;;;;;18.02;8.45;;;;;;;10.98;43.12;95915.81;10325737;28;20501;-73
2021/03/02 14:27:15;;;;;;;19.02;7.80;;;;;;;11.17;44.23;95910.16;10325561;28;20734;-73
2021/03/02 14:32:17;;;;;;;21.30;7.55;;;;;;;11.35;42.10;95900.97;10325192;28;20030;-73
2021/03/02 14:37:18;;;;;;;20.08;7.45;;;;;;;11.26;42.90;95905.94;10323604;28;20077;-73
2021/03/02 14:42:20;;;;;;;17.23;7.05;;;;;;;11.38;41.77;95911.25;10324635;28;20052;-74
2021/03/02 14:47:22;;;;;;;20.63;8.15;;;;;;;11.29;42.37;95908.97;10324458;28;20046;-72
2021/03/02 14:52:22;;;;;;;9.82;6.60;;;;;;;11.24;42.32;95908.09;10324936;28;20035;-72
2021/03/02 14:57:24;;;;;;;10.65;6.97;;;;;;;11.18;42.29;95909.09;10324277;28;20462;-72
2021/03/02 15:02:25;;;;;;;20.75;8.48;;;;;;;11.28;42.93;95911.91;10323221;28;20030;-73
2021/03/02 15:07:25;;;;;;;14.60;7.30;;;;;;;11.36;42.56;95907.97;10288670;28;20026;-72
2021/03/02 15:12:26;;;;;;;13.13;7.85;;;;;;;11.47;43.13;95904.38;10310981;28;20022;-72
2021/03/02 15:17:27;;;;;;;17.50;8.57;;;;;;;10.87;44.89;95908.63;10323372;28;20026;-72
2021/03/02 15:22:28;;;;;;;21.45;8.77;;;;;;;10.52;45.56;95904.31;10303668;28;20105;-72
2021/03/02 15:27:29;;;;;;;19.48;8.73;;;;;;;10.58;45.85;95908.72;10297018;28;20030;-73
2021/03/02 15:32:32;;;;;;;19.67;11.27;;;;;;;10.32;46.05;95931.63;10297561;28;20084;-73
2021/03/02 15:37:32;;;;;;;17.80;10.48;;;;;;;9.78;46.93;95924.72;10310921;28;20037;-73
2021/03/02 15:42:35;;;;;;;20.10;11.07;;;;;;;9.80;47.93;95941.41;10282670;28;20490;-73
2021/03/02 15:47:36;;;;;;;30.35;13.15;;;;;;;9.82;47.85;95938.50;10282079;28;20274;-73
2021/03/02 15:52:38;;;;;;;16.75;9.93;;;;;;;9.48;48.83;95949.06;10280163;28;20022;-72
2021/03/02 15:57:39;;;;;;;55.33;21.90;;;;;;;9.59;49.50;95948.25;10281815;28;20023;-73
2021/03/02 16:02:42;;;;;;;27.20;12.43;;;;;;;9.50;49.84;95947.78;10280992;28;20062;-73
2021/03/02 16:07:42;;;;;;;24.38;12.02;;;;;;;9.52;49.29;95956.41;10280755;28;20266;-73
2021/03/02 16:12:50;;;;;;;38.43;16.97;;;;;;;9.30;49.45;95968.81;10312100;28;20822;-73
2021/03/02 16:17:56;;;;;;;89.97;28.27;;;;;;;9.11;49.81;95960.06;10321819;28;20027;-72
2021/03/02 16:23:02;;;;;;;31.38;13.98;;;;;;;9.01;50.28;95964.13;10321408;28;20494;-72
2021/03/02 16:28:04;;;;;;;331.88;104.47;;;;;;;8.81;52.37;95971.72;10321339;28;20132;-73
2021/03/02 16:33:06;;;;;;;25.52;11.95;;;;;;;8.52;52.14;95975.00;10321140;28;20038;-73
2021/03/02 16:38:10;;;;;;;42.13;19.83;;;;;;;8.39;53.36;95986.72;10321708;28;20050;-72
2021/03/02 16:43:11;;;;;;;20.95;12.30;;;;;;;8.24;53.77;95990.88;10322087;28;20034;-72
2021/03/02 16:48:12;;;;;;;28.83;12.82;;;;;;;8.07;54.96;95988.81;10320860;28;20491;-74
2021/03/02 16:53:19;;;;;;;23.75;11.50;;;;;;;7.96;55.44;95992.25;10321282;28;20085;-72
2021/03/02 16:58:29;;;;;;;31.30;13.57;;;;;;;7.81;57.53;95998.00;10304806;28;20033;-73
2021/03/02 17:03:39;;;;;;;27.75;14.00;;;;;;;7.65;58.66;96008.25;10285868;28;20057;-73
2021/03/02 17:08:40;;;;;;;25.52;13.63;;;;;;;7.53;59.05;96018.06;10288126;28;20026;-73
2021/03/02 17:13:42;;;;;;;30.95;13.68;;;;;;;7.34;60.07;96022.59;10324132;28;20026;-74
2021/03/02 17:18:43;;;;;;;27.77;13.93;;;;;;;7.12;61.77;96025.66;10328091;28;20037;-74
2021/03/02 17:23:43;;;;;;;27.95;14.23;;;;;;;7.10;62.61;96026.91;10327583;28;20033;-73
2021/03/02 17:28:43;;;;;;;31.13;14.50;;;;;;;6.98;63.84;96040.16;10326644;28;20478;-73
2021/03/02 17:33:44;;;;;;;27.53;13.93;;;;;;;6.85;64.04;96035.72;10327491;28;20297;-73
2021/03/02 17:38:44;;;;;;;29.93;13.93;;;;;;;6.84;64.30;96036.78;10327060;28;20297;-73
2021/03/02 17:43:45;;;;;;;44.17;15.27;;;;;;;6.73;65.87;96035.63;10326885;28;20830;-74
2021/03/02 17:48:46;;;;;;;28.05;13.57;;;;;;;6.84;65.94;96042.13;10326557;28;20850;-72
2021/03/02 17:53:46;;;;;;;28.80;14.07;;;;;;;6.78;67.89;96035.78;10326886;28;20034;-73
2021/03/02 17:58:46;;;;;;;29.20;14.18;;;;;;;6.77;66.74;96034.16;10324771;28;20030;-72
2021/03/02 18:03:47;;;;;;;25.60;14.10;;;;;;;6.56;68.92;96021.13;10327217;28;20054;-72
2021/03/02 18:08:47;;;;;;;25.03;12.50;;;;;;;6.56;69.33;96024.63;10326408;28;20145;-73
2021/03/02 18:13:48;;;;;;;32.17;14.00;;;;;;;6.57;69.22;96031.63;10318622;28;20039;-73
2021/03/02 18:18:48;;;;;;;29.48;14.35;;;;;;;6.71;70.29;96047.53;10285957;28;20031;-71
2021/03/02 18:23:48;;;;;;;31.53;14.40;;;;;;;6.78;67.73;96045.66;10285739;28;20101;-72
2021/03/02 18:28:49;;;;;;;25.83;13.93;;;;;;;6.73;68.32;96048.97;10285444;28;20289;-72
2021/03/02 18:33:49;;;;;;;31.43;13.93;;;;;;;6.55;69.94;96055.03;10285615;28;20027;-73
2021/03/02 18:38:49;;;;;;;29.45;14.48;;;;;;;6.32;71.22;96051.06;10285273;28;20302;-73
2021/03/02 18:43:50;;;;;;;25.58;14.05;;;;;;;6.30;71.39;96050.44;10318277;28;20030;-74
2021/03/02 18:48:51;;;;;;;23.90;11.70;;;;;;;6.10;71.25;96039.06;10325645;28;20068;-72
2021/03/02 18:53:51;;;;;;;26.15;12.25;;;;;;;6.09;70.85;96043.56;10302130;28;20034;-73
2021/03/02 18:58:52;;;;;;;22.10;12.00;;;;;;;6.03;71.84;96044.44;10284417;28;20478;-73
2021/03/02 19:03:52;;;;;;;24.25;11.45;;;;;;;6.11;74.08;96046.03;10284654;28;20879;-73
2021/03/02 19:08:53;;;;;;;21.63;11.30;;;;;;;6.13;70.81;96050.13;10283631;28;20077;-73
2021/03/02 19:13:54;;;;;;;23.85;13.02;;;;;;;6.06;70.46;96053.88;10323052;28;20030;-73
2021/03/02 19:18:55;;;;;;;24.75;13.43;;;;;;;5.88;69.13;96054.53;10324228;28;20022;-74
2021/03/02 19:23:55;;;;;;;28.87;15.67;;;;;;;5.63;70.97;96066.69;10315878;28;20548;-74
2021/03/02 19:28:55;;;;;;;23.10;12.63;;;;;;;5.54;72.01;96061.78;10323758;28;20454;-74
2021/03/02 19:33:56;;;;;;;24.33;12.43;;;;;;;5.41;73.15;96070.63;10324074;28;20418;-74
2021/03/02 19:38:56;;;;;;;21.02;12.20;;;;;;;5.34;73.68;96080.47;10322920;28;20741;-74
2021/03/02 19:43:57;;;;;;;21.90;13.15;;;;;;;5.28;74.18;96074.13;10323011;28;20041;-75
2021/03/02 19:48:57;;;;;;;24.23;12.65;;;;;;;5.24;74.34;96084.38;10322503;28;20026;-75
2021/03/02 19:53:58;;;;;;;24.23;13.45;;;;;;;5.18;75.25;96084.38;10322213;28;20023;-75
2021/03/02 19:58:58;;;;;;;21.47;11.57;;;;;;;5.18;73.62;96079.88;10322870;28;20095;-75
2021/03/02 20:03:58;;;;;;;22.60;12.50;;;;;;;5.13;74.93;96082.31;10322829;28;20037;-75
2021/03/02 20:09:00;;;;;;;26.90;12.23;;;;;;;5.09;75.06;96086.44;10345933;28;20101;-75
2021/03/02 20:14:00;;;;;;;28.92;13.98;;;;;;;5.12;75.36;96078.00;10350672;28;20121;-75
2021/03/02 20:19:01;;;;;;;24.42;12.90;;;;;;;5.13;75.67;96095.66;10362281;28;20539;-74
2021/03/02 20:24:02;;;;;;;23.40;12.82;;;;;;;5.21;75.13;96089.31;10361307;28;20087;-75
2021/03/02 20:29:04;;;;;;;28.65;12.90;;;;;;;5.28;76.96;96087.47;10372518;28;20485;-75
2021/03/02 20:34:04;;;;;;;24.83;12.13;;;;;;;5.27;76.54;96080.47;10281873;28;20037;-74
2021/03/02 20:39:05;;;;;;;22.10;12.48;;;;;;;5.36;74.59;96081.06;10289895;28;20057;-74
2021/03/02 20:44:05;;;;;;;22.23;12.20;;;;;;;5.33;75.34;96079.66;10289710;28;20027;-75
2021/03/02 20:49:06;;;;;;;23.85;12.95;;;;;;;5.31;75.42;96071.84;10289368;28;20034;-74
2021/03/02 20:54:09;;;;;;;26.45;12.75;;;;;;;5.30;75.43;96075.56;10289370;28;20027;-75
2021/03/02 20:59:10;;;;;;;26.50;12.82;;;;;;;5.43;75.14;96077.41;10288633;28;20023;-73
2021/03/02 21:04:11;;;;;;;28.23;12.73;;;;;;;5.34;75.35;96080.47;10329267;28;20391;-74
2021/03/02 21:09:11;;;;;;;20.70;12.40;;;;;;;5.34;75.75;96061.81;10328145;28;20022;-74
2021/03/02 21:14:12;;;;;;;23.33;12.57;;;;;;;5.37;75.59;96062.25;10328430;28;20114;-74
2021/03/02 21:19:12;;;;;;;25.90;13.60;;;;;;;5.21;76.09;96065.31;10326629;28;20140;-74
2021/03/02 21:24:13;;;;;;;23.25;13.02;;;;;;;5.19;77.83;96062.88;10328863;28;20308;-74
2021/03/02 21:29:13;;;;;;;27.05;13.52;;;;;;;5.19;77.65;96072.69;10328138;28;20033;-74
2021/03/02 21:34:14;;;;;;;23.50;12.93;;;;;;;5.16;79.25;96065.13;10328258;28;20034;-74
2021/03/02 21:39:14;;;;;;;23.67;11.55;;;;;;;4.93;78.22;96061.03;10329436;28;20297;-74
2021/03/02 21:44:15;;;;;;;22.08;11.30;;;;;;;4.76;79.71;96066.75;10290055;28;20050;-74
2021/03/02 21:49:15;;;;;;;33.40;13.57;;;;;;;4.70;79.54;96064.06;10287300;28;20037;-74
2021/03/02 21:54:15;;;;;;;27.10;13.77;;;;;;;4.61;80.66;96060.78;10321549;28;20826;-74
2021/03/02 21:59:16;;;;;;;22.63;12.70;;;;;;;4.67;80.66;96056.50;10325959;28;20117;-74
2021/03/02 22:04:16;;;;;;;25.10;13.27;;;;;;;4.67;81.39;96061.81;10327306;28;21152;-74
2021/03/02 22:09:17;;;;;;;24.38;12.38;;;;;;;4.75;80.63;96061.63;10327675;28;20706;-74
2021/03/02 22:14:17;;;;;;;23.80;11.73;;;;;;;4.79;81.11;96058.34;10326846;28;20070;-74
2021/03/02 22:19:18;;;;;;;20.40;11.52;;;;;;;4.78;80.33;96054.03;10325797;28;20033;-74
2021/03/02 22:24:19;;;;;;;23.08;10.85;;;;;;;4.67;79.74;96059.16;10326750;28;20033;-75
2021/03/02 22:29:19;;;;;;;21.95;11.35;;;;;;;4.67;81.06;96053.81;10325032;28;20026;-73
2021/03/02 22:34:19;;;;;;;28.83;12.63;;;;;;;4.61;81.57;96055.47;10325940;28;20034;-75
2021/03/02 22:39:20;;;;;;;26.17;11.85;;;;;;;4.70;80.17;96053.41;10325939;28;20297;-75
2021/03/02 22:44:20;;;;;;;24.52;12.25;;;;;;;4.72;81.13;96051.38;10324769;28;20026;-74
2021/03/02 22:49:21;;;;;;;23.37;13.43;;;;;;;4.71;80.01;96057.72;10324228;28;20041;-75
2021/03/02 22:54:21;;;;;;;24.40;11.82;;;;;;;4.51;82.19;96050.53;10325865;28;20109;-75
2021/03/02 22:59:22;;;;;;;20.00;12.03;;;;;;;4.47;83.06;96048.47;10325249;28;20116;-74
2021/03/02 23:04:23;;;;;;;24.33;11.90;;;;;;;4.51;81.53;96061.19;10325103;28;20277;-74